RJTR(METAR)
07/27 18:13
RJTR 270913Z AUTO 00000KT 10SM BKN050 28/21 A2945 RMK AO2 LTG
DSNT NE RAB03E13 SLP972=
戻る
トップページへ戻る
IMOC Co,.Ltd.